Time;durP1;ratioP1;P1;durP2;ratioP2;P2;SDS_P1;SDS_P2;PMS_P1;PMS_P2;Temp;Humidity;BMP_temperature;BMP_pressure;BME280_temperature;BME280_humidity;BME280_pressure;Samples;Min_cycle;Max_cycle;Signal;HPM_P1;HPM_P2
2023/07/12 00:00:25;;;;;;;10.57;8.07;;;17.60;99.90;;;;;;6129257;23;20364;-78
2023/07/12 00:02:50;;;;;;;9.40;8.23;;;17.60;99.90;;;;;;6128581;23;20014;-78
2023/07/12 00:05:17;;;;;;;10.65;8.32;;;17.50;99.90;;;;;;6128420;23;20009;-78
2023/07/12 00:07:45;;;;;;;19.80;12.50;;;17.50;99.90;;;;;;6129018;23;20360;-78
2023/07/12 00:10:15;;;;;;;7.55;6.78;;;17.50;99.90;;;;;;6128851;23;20016;-78
2023/07/12 00:12:41;;;;;;;9.05;8.15;;;17.50;99.90;;;;;;6104689;23;20021;-78
2023/07/12 00:15:10;;;;;;;9.38;8.48;;;17.50;99.90;;;;;;6103745;23;20010;-78
2023/07/12 00:17:36;;;;;;;16.17;10.82;;;17.50;99.90;;;;;;6128075;23;20088;-78
2023/07/12 00:20:03;;;;;;;9.85;8.05;;;17.50;99.90;;;;;;6127874;23;20446;-78
2023/07/12 00:22:29;;;;;;;8.00;7.25;;;17.50;99.90;;;;;;6128586;23;20462;-78
2023/07/12 00:24:54;;;;;;;9.25;8.25;;;17.50;99.90;;;;;;6128532;23;20010;-78
2023/07/12 00:27:20;;;;;;;8.88;7.30;;;17.50;99.90;;;;;;6128365;23;20009;-78
2023/07/12 00:29:45;;;;;;;10.32;9.10;;;17.50;99.90;;;;;;6129040;23;20021;-78
2023/07/12 00:32:11;;;;;;;7.68;6.75;;;17.50;99.90;;;;;;6128537;23;20061;-78
2023/07/12 00:34:36;;;;;;;13.43;8.65;;;17.50;99.90;;;;;;6127875;23;20022;-78
2023/07/12 00:37:02;;;;;;;15.48;11.52;;;17.50;99.90;;;;;;6127484;23;20461;-78
2023/07/12 00:39:28;;;;;;;10.68;9.52;;;17.50;99.90;;;;;;6128709;23;20338;-78
2023/07/12 00:42:15;;;;;;;10.65;8.18;;;17.50;99.90;;;;;;6104519;23;20025;-78
2023/07/12 00:44:57;;;;;;;11.57;9.25;;;17.50;99.90;;;;;;6127205;23;20014;-78
2023/07/12 00:47:24;;;;;;;9.75;8.50;;;17.50;99.90;;;;;;6103739;23;20014;-77
2023/07/12 00:49:51;;;;;;;11.40;9.38;;;17.40;99.90;;;;;;6128393;23;20009;-77
2023/07/12 00:52:18;;;;;;;23.98;13.73;;;17.40;99.90;;;;;;6128841;23;20009;-77
2023/07/12 00:54:55;;;;;;;18.58;11.93;;;17.50;99.90;;;;;;6128242;23;20470;-77
2023/07/12 00:57:22;;;;;;;16.77;10.63;;;17.40;99.90;;;;;;6128239;23;20084;-77
2023/07/12 00:59:48;;;;;;;19.05;12.57;;;17.50;99.90;;;;;;6128832;23;20020;-78
2023/07/12 01:02:14;;;;;;;11.73;10.02;;;17.40;99.90;;;;;;6128777;23;20009;-78
2023/07/12 01:04:48;;;;;;;10.40;9.30;;;17.40;99.90;;;;;;6103296;23;20014;-77
2023/07/12 01:07:15;;;;;;;18.02;12.57;;;17.40;99.90;;;;;;6128391;23;20012;-77
2023/07/12 01:09:41;;;;;;;11.50;10.30;;;17.40;99.90;;;;;;6128869;23;20020;-77
2023/07/12 01:12:06;;;;;;;11.52;10.32;;;17.30;99.90;;;;;;6128331;23;20006;-77
2023/07/12 01:14:32;;;;;;;13.88;11.50;;;17.30;99.90;;;;;;6102497;23;20387;-77
2023/07/12 01:17:05;;;;;;;94.13;23.73;;;17.30;99.90;;;;;;6128211;23;20017;-77
2023/07/12 01:19:32;;;;;;;11.45;10.15;;;17.20;99.90;;;;;;6103966;23;20014;-77
2023/07/12 01:21:58;;;;;;;9.73;8.82;;;17.20;99.90;;;;;;6128535;23;20009;-77
2023/07/12 01:24:26;;;;;;;14.98;10.10;;;17.20;99.90;;;;;;6103256;23;20009;-77
2023/07/12 01:26:57;;;;;;;12.25;8.50;;;17.20;99.90;;;;;;6127713;23;20009;-77
2023/07/12 01:29:23;;;;;;;10.85;8.48;;;17.20;99.90;;;;;;6127433;23;20103;-77
2023/07/12 01:31:49;;;;;;;13.35;9.73;;;17.20;99.90;;;;;;6126937;23;20064;-78
2023/07/12 01:34:16;;;;;;;23.33;11.07;;;17.10;99.90;;;;;;6127517;23;20021;-77
2023/07/12 01:36:42;;;;;;;11.77;9.25;;;17.10;99.90;;;;;;6127967;23;20398;-77
2023/07/12 01:39:08;;;;;;;13.30;9.25;;;17.10;99.90;;;;;;6127859;23;20013;-77
2023/07/12 01:41:33;;;;;;;14.68;9.88;;;17.10;99.90;;;;;;6103033;23;20006;-77
2023/07/12 01:43:59;;;;;;;8.45;7.25;;;17.10;99.90;;;;;;6126844;23;20014;-77
2023/07/12 01:46:25;;;;;;;11.05;7.75;;;17.00;99.90;;;;;;6127406;23;20040;-77
2023/07/12 01:48:51;;;;;;;18.33;10.45;;;16.90;99.90;;;;;;6128307;23;20385;-77
2023/07/12 01:51:18;;;;;;;18.05;9.00;;;16.90;99.90;;;;;;6128276;23;20013;-77
2023/07/12 01:53:44;;;;;;;14.63;8.93;;;16.80;99.90;;;;;;6127948;23;20063;-77
2023/07/12 01:56:11;;;;;;;15.65;10.40;;;16.70;99.90;;;;;;6126798;23;20449;-77
2023/07/12 01:58:37;;;;;;;18.17;11.35;;;16.70;99.90;;;;;;6103026;23;20060;-77
2023/07/12 02:01:02;;;;;;;25.30;13.32;;;16.70;99.90;;;;;;6128243;23;20009;-77
2023/07/12 02:03:28;;;;;;;15.25;12.05;;;16.60;99.90;;;;;;6128217;23;20009;-77
2023/07/12 02:05:54;;;;;;;15.63;11.82;;;16.60;99.90;;;;;;6126849;23;20013;-77
2023/07/12 02:08:20;;;;;;;18.52;13.30;;;16.60;99.90;;;;;;6103602;23;20009;-77
2023/07/12 02:10:46;;;;;;;28.70;17.55;;;16.70;99.90;;;;;;6101693;23;20013;-77
2023/07/12 02:13:12;;;;;;;23.88;16.20;;;16.70;99.90;;;;;;6127990;23;20010;-77
2023/07/12 02:15:38;;;;;;;36.80;19.67;;;16.70;99.90;;;;;;6127561;23;20323;-77
2023/07/12 02:18:04;;;;;;;18.70;13.68;;;16.80;99.90;;;;;;6103241;23;20021;-77
2023/07/12 02:20:30;;;;;;;16.58;13.05;;;16.80;99.90;;;;;;6100962;23;20019;-77
2023/07/12 02:22:55;;;;;;;23.85;16.60;;;16.80;99.90;;;;;;6125096;23;20049;-77
2023/07/12 02:25:21;;;;;;;35.53;17.90;;;16.80;99.90;;;;;;6101362;23;20014;-77
2023/07/12 02:27:48;;;;;;;35.08;17.83;;;16.80;99.90;;;;;;6127212;23;20010;-77
2023/07/12 02:30:18;;;;;;;30.45;17.55;;;16.90;99.90;;;;;;6127870;23;20338;-77
2023/07/12 02:32:45;;;;;;;31.95;14.93;;;16.90;99.90;;;;;;6127041;23;20048;-77
2023/07/12 02:35:11;;;;;;;21.55;13.80;;;16.90;99.90;;;;;;6102380;23;20024;-77
2023/07/12 02:37:37;;;;;;;19.52;12.23;;;16.90;99.90;;;;;;6127579;23;20013;-77
2023/07/12 02:40:08;;;;;;;29.70;14.52;;;16.90;99.90;;;;;;6103847;23;20345;-77
2023/07/12 02:42:34;;;;;;;30.55;14.45;;;16.80;99.90;;;;;;6127747;23;20549;-77
2023/07/12 02:45:00;;;;;;;14.93;9.65;;;16.80;99.90;;;;;;6126851;23;20021;-77
2023/07/12 02:47:26;;;;;;;23.10;11.18;;;16.80;99.90;;;;;;6127217;23;20017;-77
2023/07/12 02:49:51;;;;;;;35.25;12.90;;;16.80;99.90;;;;;;6127734;23;20006;-77
2023/07/12 02:52:17;;;;;;;32.10;13.85;;;16.70;99.90;;;;;;6127915;23;20041;-77
2023/07/12 02:54:43;;;;;;;16.77;8.88;;;16.70;99.90;;;;;;6102318;23;20467;-77
2023/07/12 02:57:13;;;;;;;16.08;8.50;;;16.60;99.90;;;;;;6127524;23;20016;-77
2023/07/12 02:59:39;;;;;;;24.35;12.05;;;16.60;99.90;;;;;;6126895;23;20013;-77
2023/07/12 03:02:07;;;;;;;26.73;13.00;;;16.50;99.90;;;;;;6127313;23;20092;-78
2023/07/12 03:04:33;;;;;;;32.42;14.38;;;16.60;99.90;;;;;;6102742;23;20014;-78
2023/07/12 03:06:58;;;;;;;27.17;13.98;;;16.50;99.90;;;;;;6127139;23;20049;-78
2023/07/12 03:09:24;;;;;;;42.30;16.50;;;16.50;99.90;;;;;;6127735;23;20009;-78
2023/07/12 03:11:50;;;;;;;60.03;20.20;;;16.50;99.90;;;;;;6127908;23;20041;-77
2023/07/12 03:14:17;;;;;;;34.35;14.55;;;16.50;99.90;;;;;;6101439;23;20018;-78
2023/07/12 03:16:43;;;;;;;35.20;16.17;;;16.50;99.90;;;;;;6127326;23;20009;-78
2023/07/12 03:19:09;;;;;;;35.70;16.15;;;16.40;99.90;;;;;;6127610;23;20009;-78
2023/07/12 03:21:34;;;;;;;72.70;20.42;;;16.40;99.90;;;;;;6103367;23;20450;-77
2023/07/12 03:24:01;;;;;;;46.78;17.83;;;16.40;99.90;;;;;;6103088;23;20020;-77
2023/07/12 03:26:27;;;;;;;26.95;14.65;;;16.40;99.90;;;;;;6125321;23;20013;-77
2023/07/12 03:28:52;;;;;;;31.48;15.25;;;16.40;99.90;;;;;;6127615;23;20089;-77
2023/07/12 03:31:18;;;;;;;28.20;16.55;;;16.40;99.90;;;;;;6103353;23;20010;-77
2023/07/12 03:33:48;;;;;;;25.92;14.15;;;16.40;99.90;;;;;;6127759;23;20517;-77
2023/07/12 03:36:15;;;;;;;29.02;15.68;;;16.40;99.90;;;;;;6101935;23;20020;-77
2023/07/12 03:38:41;;;;;;;52.47;19.25;;;16.40;99.90;;;;;;6127147;23;20013;-77
2023/07/12 03:41:10;;;;;;;37.33;17.45;;;16.30;99.90;;;;;;6101920;23;20323;-77
2023/07/12 03:43:36;;;;;;;25.85;13.45;;;16.30;99.90;;;;;;6103154;23;20013;-77
2023/07/12 03:46:03;;;;;;;30.60;15.88;;;16.30;99.90;;;;;;6126671;23;20319;-77
2023/07/12 03:48:28;;;;;;;29.88;14.77;;;16.30;99.90;;;;;;6103088;23;20033;-77
2023/07/12 03:50:57;;;;;;;39.78;17.48;;;16.30;99.90;;;;;;6102383;23;20446;-77
2023/07/12 03:53:24;;;;;;;44.95;17.90;;;16.30;99.90;;;;;;6127571;23;20009;-77
2023/07/12 03:55:50;;;;;;;31.85;16.35;;;16.30;99.90;;;;;;6127731;23;20013;-77
2023/07/12 03:58:24;;;;;;;24.25;14.80;;;16.30;99.90;;;;;;6129720;23;20020;-77
2023/07/12 04:00:50;;;;;;;44.65;18.70;;;16.30;99.90;;;;;;6129370;23;20342;-77
2023/07/12 04:03:17;;;;;;;35.08;18.27;;;16.30;99.90;;;;;;6128948;23;20021;-77
2023/07/12 04:05:47;;;;;;;45.20;19.13;;;16.30;99.90;;;;;;6128016;23;20092;-77
2023/07/12 04:08:13;;;;;;;22.60;14.50;;;16.30;99.90;;;;;;6128919;23;20016;-77
2023/07/12 04:10:38;;;;;;;22.13;14.82;;;16.30;99.90;;;;;;6129410;23;20009;-77
2023/07/12 04:13:05;;;;;;;18.52;12.13;;;16.40;99.90;;;;;;6129192;23;20010;-77
2023/07/12 04:15:31;;;;;;;34.97;17.40;;;16.40;99.90;;;;;;6128303;23;20017;-77
2023/07/12 04:17:57;;;;;;;22.08;13.18;;;16.40;99.90;;;;;;6128759;23;20013;-77
2023/07/12 04:20:22;;;;;;;27.77;15.73;;;16.30;99.90;;;;;;6128768;23;20014;-77
2023/07/12 04:22:49;;;;;;;27.55;13.93;;;16.30;99.90;;;;;;6128495;23;20039;-77
2023/07/12 04:25:15;;;;;;;18.23;10.98;;;16.30;99.90;;;;;;6128315;23;20018;-77
2023/07/12 04:27:41;;;;;;;21.77;13.00;;;16.30;99.90;;;;;;6127769;23;20157;-77
2023/07/12 04:30:08;;;;;;;18.30;12.18;;;16.30;99.90;;;;;;6104449;23;20012;-77
2023/07/12 04:32:34;;;;;;;21.73;12.77;;;16.30;99.90;;;;;;6129076;23;20013;-77
2023/07/12 04:35:00;;;;;;;16.08;11.55;;;16.30;99.90;;;;;;6103637;23;20049;-77
2023/07/12 04:37:26;;;;;;;21.00;12.82;;;16.20;99.90;;;;;;6127655;23;20017;-77
2023/07/12 04:39:52;;;;;;;20.55;12.52;;;16.20;99.90;;;;;;6127833;23;20009;-77
2023/07/12 04:42:18;;;;;;;20.33;11.88;;;16.20;99.90;;;;;;6128858;23;20099;-77
2023/07/12 04:44:44;;;;;;;18.75;12.18;;;16.20;99.90;;;;;;6153099;23;20013;-77
2023/07/12 04:47:09;;;;;;;22.58;12.90;;;16.20;99.90;;;;;;6127655;23;20005;-77
2023/07/12 04:49:35;;;;;;;20.60;13.85;;;16.20;99.90;;;;;;6104450;23;20013;-77
2023/07/12 04:52:01;;;;;;;17.08;10.20;;;16.20;99.90;;;;;;6129186;23;20017;-77
2023/07/12 04:54:26;;;;;;;24.48;13.35;;;16.40;99.90;;;;;;6126581;23;20017;-77
2023/07/12 04:56:52;;;;;;;24.77;13.98;;;16.30;99.90;;;;;;6126502;23;20009;-77
2023/07/12 04:59:18;;;;;;;19.67;12.15;;;16.30;99.90;;;;;;6128124;23;20071;-77
2023/07/12 05:01:45;;;;;;;30.58;16.20;;;16.30;99.90;;;;;;6104013;23;20005;-77
2023/07/12 05:04:13;;;;;;;20.83;14.48;;;16.40;99.90;;;;;;6126929;23;20009;-77
2023/07/12 05:06:38;;;;;;;22.45;14.18;;;16.50;99.90;;;;;;6128216;23;20027;-77
2023/07/12 05:09:05;;;;;;;20.65;13.32;;;16.80;99.90;;;;;;6128180;23;20346;-77
2023/07/12 05:11:31;;;;;;;26.63;14.65;;;16.90;99.90;;;;;;6128520;23;20077;-77
2023/07/12 05:13:56;;;;;;;26.33;14.82;;;17.00;99.90;;;;;;6103595;23;20446;-77
2023/07/12 05:16:22;;;;;;;19.35;12.73;;;16.90;99.90;;;;;;6103987;23;20021;-77
2023/07/12 05:18:48;;;;;;;19.30;11.07;;;16.80;99.90;;;;;;6128154;23;20036;-77
2023/07/12 05:21:14;;;;;;;21.15;12.88;;;16.80;99.90;;;;;;6128590;23;20018;-77
2023/07/12 05:23:42;;;;;;;33.05;17.05;;;16.70;99.90;;;;;;6127761;23;20020;-77
2023/07/12 05:26:08;;;;;;;23.50;12.30;;;16.80;99.90;;;;;;6127874;23;20458;-77
2023/07/12 05:28:34;;;;;;;17.63;11.00;;;16.90;99.90;;;;;;6128394;23;20005;-77
2023/07/12 05:31:08;;;;;;;20.27;12.55;;;17.20;99.90;;;;;;6127913;23;20005;-77
2023/07/12 05:33:34;;;;;;;14.35;11.93;;;17.80;99.90;;;;;;6128387;23;20442;-77
2023/07/12 05:36:01;;;;;;;15.60;9.95;;;18.40;99.90;;;;;;6101938;23;20048;-77
2023/07/12 05:38:27;;;;;;;15.35;11.25;;;19.00;99.90;;;;;;6103751;23;20385;-77
2023/07/12 05:40:56;;;;;;;13.63;8.13;;;19.30;99.90;;;;;;6128329;23;20068;-77
2023/07/12 05:43:23;;;;;;;23.85;12.55;;;19.30;99.90;;;;;;6127878;23;20013;-77
2023/07/12 05:45:50;;;;;;;15.02;9.95;;;19.10;99.90;;;;;;6101791;23;20490;-77
2023/07/12 05:48:15;;;;;;;19.88;13.75;;;18.70;99.90;;;;;;6127738;23;20017;-77
2023/07/12 05:50:41;;;;;;;24.98;14.95;;;18.50;99.90;;;;;;6127924;23;20470;-77
2023/07/12 05:53:08;;;;;;;20.23;15.02;;;18.20;99.90;;;;;;6128209;23;20347;-77
2023/07/12 05:55:34;;;;;;;22.92;15.52;;;18.10;99.90;;;;;;6128242;23;20041;-77
2023/07/12 05:58:00;;;;;;;19.48;15.00;;;18.10;99.90;;;;;;6125471;23;20036;-77
2023/07/12 06:00:26;;;;;;;24.33;16.88;;;17.90;99.90;;;;;;6126578;23;20362;-77
2023/07/12 06:02:52;;;;;;;23.58;16.25;;;17.80;99.90;;;;;;6128152;23;20009;-78
2023/07/12 06:05:18;;;;;;;19.98;16.83;;;17.70;99.90;;;;;;6103893;23;20021;-77
2023/07/12 06:07:45;;;;;;;22.08;18.13;;;17.60;99.90;;;;;;6126987;23;20009;-78
2023/07/12 06:10:11;;;;;;;22.52;20.20;;;17.50;99.90;;;;;;6125094;23;20485;-76
2023/07/12 06:12:38;;;;;;;24.50;21.23;;;17.50;99.90;;;;;;6126210;23;20133;-78
2023/07/12 06:15:04;;;;;;;26.77;20.88;;;17.60;99.90;;;;;;6101908;23;20009;-77
2023/07/12 06:17:30;;;;;;;24.45;21.92;;;17.60;99.90;;;;;;6127253;23;20014;-77
2023/07/12 06:19:55;;;;;;;19.55;17.42;;;17.70;99.90;;;;;;6127433;23;20476;-76
2023/07/12 06:22:21;;;;;;;22.65;20.13;;;17.80;99.90;;;;;;6127743;23;20010;-77
2023/07/12 06:24:47;;;;;;;26.98;23.67;;;17.80;99.90;;;;;;6128067;23;20020;-77
2023/07/12 06:27:13;;;;;;;27.27;24.38;;;17.80;99.90;;;;;;6127808;23;20096;-77
2023/07/12 06:29:42;;;;;;;19.90;17.85;;;18.00;99.90;;;;;;6128118;23;20462;-77
2023/07/12 06:32:11;;;;;;;26.38;21.95;;;18.10;99.90;;;;;;6103163;23;20014;-77
2023/07/12 06:34:37;;;;;;;21.52;16.98;;;18.10;99.90;;;;;;6127837;23;20485;-77
2023/07/12 06:37:03;;;;;;;20.45;18.45;;;18.20;99.90;;;;;;6127651;23;20017;-77
2023/07/12 06:39:29;;;;;;;19.48;16.30;;;18.20;99.90;;;;;;6127843;23;20025;-77
2023/07/12 06:41:55;;;;;;;22.70;18.85;;;18.20;99.90;;;;;;6127398;23;20050;-77
2023/07/12 06:44:21;;;;;;;22.35;19.08;;;18.20;99.90;;;;;;6127006;23;20019;-77
2023/07/12 06:46:47;;;;;;;17.60;13.15;;;18.30;99.90;;;;;;6127643;23;20005;-77
2023/07/12 06:49:15;;;;;;;16.92;14.57;;;18.40;99.90;;;;;;6103368;23;20006;-76
2023/07/12 06:51:46;;;;;;;19.42;14.95;;;18.50;99.90;;;;;;6127962;23;20010;-76
2023/07/12 06:54:13;;;;;;;23.23;20.92;;;18.50;99.90;;;;;;6127771;23;20016;-78
2023/07/12 06:56:39;;;;;;;16.80;13.38;;;18.40;99.90;;;;;;6102153;23;20057;-78
2023/07/12 06:59:05;;;;;;;14.45;12.93;;;18.50;99.90;;;;;;6127422;23;20061;-77
2023/07/12 07:01:30;;;;;;;19.13;14.02;;;18.50;99.90;;;;;;6103633;23;20010;-76
2023/07/12 07:03:56;;;;;;;15.90;11.63;;;18.60;99.90;;;;;;6128390;23;20016;-80
2023/07/12 07:06:22;;;;;;;17.40;13.27;;;18.60;99.90;;;;;;6127067;23;20441;-77
2023/07/12 07:08:47;;;;;;;17.70;14.80;;;18.50;99.90;;;;;;6127617;23;20013;-77
2023/07/12 07:11:13;;;;;;;17.50;12.82;;;18.40;99.90;;;;;;6104226;23;20056;-77
2023/07/12 07:13:39;;;;;;;19.05;17.00;;;18.30;99.90;;;;;;6127893;23;20017;-77
2023/07/12 07:16:04;;;;;;;17.38;14.18;;;18.40;99.90;;;;;;6102749;23;20013;-77
2023/07/12 07:18:30;;;;;;;16.70;10.73;;;18.40;99.90;;;;;;6103316;23;20014;-77
2023/07/12 07:20:58;;;;;;;21.25;16.77;;;18.40;99.90;;;;;;6127780;23;20018;-77
2023/07/12 07:23:24;;;;;;;16.50;14.05;;;18.50;99.90;;;;;;6127698;23;20015;-77
2023/07/12 07:25:49;;;;;;;15.10;13.40;;;18.50;99.90;;;;;;6127486;23;20065;-77
2023/07/12 07:28:15;;;;;;;15.40;10.93;;;18.60;99.90;;;;;;6126755;23;20010;-77
2023/07/12 07:30:41;;;;;;;15.88;11.95;;;18.80;99.90;;;;;;6128761;23;20064;-77
2023/07/12 07:33:07;;;;;;;16.45;10.60;;;18.90;99.90;;;;;;6129549;23;20080;-76
2023/07/12 07:35:33;;;;;;;13.57;10.05;;;18.80;99.90;;;;;;6105313;23;20056;-76
2023/07/12 07:37:58;;;;;;;12.05;10.23;;;18.70;99.90;;;;;;6129288;23;20415;-77
2023/07/12 07:40:24;;;;;;;18.40;11.35;;;18.90;99.90;;;;;;6129723;23;20382;-77
2023/07/12 07:42:49;;;;;;;15.73;9.52;;;19.00;99.90;;;;;;6128246;23;20022;-76
2023/07/12 07:45:15;;;;;;;15.32;9.02;;;19.20;99.90;;;;;;6129511;23;20461;-76
2023/07/12 07:47:41;;;;;;;15.82;10.27;;;19.40;99.90;;;;;;6129259;23;20480;-78
2023/07/12 07:50:08;;;;;;;15.68;9.05;;;19.60;99.90;;;;;;6129532;23;20408;-77
2023/07/12 07:52:33;;;;;;;14.48;10.52;;;19.80;99.90;;;;;;6128825;23;20010;-77
2023/07/12 07:54:59;;;;;;;15.25;12.68;;;20.00;99.90;;;;;;6129485;23;20048;-77
2023/07/12 07:57:25;;;;;;;14.63;11.45;;;20.40;99.90;;;;;;6128730;23;20013;-77
2023/07/12 07:59:51;;;;;;;11.05;8.20;;;20.70;99.90;;;;;;6129491;23;20009;-77
2023/07/12 08:02:16;;;;;;;14.00;9.30;;;20.90;99.90;;;;;;6128895;23;20056;-77
2023/07/12 08:04:42;;;;;;;15.07;9.52;;;20.90;99.90;;;;;;6129544;23;20013;-77
2023/07/12 08:07:07;;;;;;;14.93;7.22;;;21.10;99.90;;;;;;6104625;23;20029;-77
2023/07/12 08:09:35;;;;;;;15.40;9.30;;;21.70;99.90;;;;;;6129214;23;20005;-77
2023/07/12 08:12:02;;;;;;;12.43;8.60;;;22.30;99.90;;;;;;6129333;23;20005;-78
2023/07/12 08:14:27;;;;;;;12.93;8.60;;;22.30;99.90;;;;;;6128798;23;20033;-77
2023/07/12 08:16:53;;;;;;;11.70;7.65;;;22.30;99.90;;;;;;6128702;23;20343;-78
2023/07/12 08:19:19;;;;;;;11.38;6.47;;;22.30;99.90;;;;;;6129089;23;20092;-77
2023/07/12 08:21:45;;;;;;;11.70;6.47;;;22.50;99.90;;;;;;6129208;23;20368;-77
2023/07/12 08:24:10;;;;;;;9.82;6.40;;;22.80;99.90;;;;;;6104739;23;20121;-77
2023/07/12 08:26:36;;;;;;;11.50;7.32;;;22.70;99.90;;;;;;6104020;23;20450;-77
2023/07/12 08:29:02;;;;;;;12.80;7.38;;;22.30;99.90;;;;;;6104729;23;20049;-77
2023/07/12 08:31:28;;;;;;;13.52;6.50;;;21.80;99.90;;;;;;6129131;23;20442;-77
2023/07/12 08:33:55;;;;;;;11.60;7.10;;;21.30;99.90;;;;;;6129092;23;20084;-77
2023/07/12 08:36:21;;;;;;;16.15;7.70;;;20.90;99.90;;;;;;6128806;23;20040;-77
2023/07/12 08:38:47;;;;;;;16.25;8.50;;;20.60;99.90;;;;;;6128940;23;20116;-77
2023/07/12 08:41:18;;;;;;;10.63;8.32;;;20.30;99.90;;;;;;6128738;23;20056;-77
2023/07/12 08:43:44;;;;;;;12.70;9.50;;;20.30;99.90;;;;;;6128879;23;20021;-77
2023/07/12 08:46:23;;;;;;;16.02;10.32;;;20.20;99.90;;;;;;6128540;23;20025;-77
2023/07/12 08:48:53;;;;;;;17.80;12.43;;;20.10;99.90;;;;;;6153506;23;20010;-77
2023/07/12 08:51:32;;;;;;;17.67;12.07;;;20.00;99.90;;;;;;6128427;23;20021;-77
2023/07/12 08:53:58;;;;;;;15.02;11.80;;;19.80;99.90;;;;;;6128787;23;20010;-77
2023/07/12 08:56:25;;;;;;;17.27;10.98;;;19.60;99.90;;;;;;6127996;23;20060;-77
2023/07/12 08:58:53;;;;;;;15.77;11.75;;;19.60;99.90;;;;;;6104048;23;20024;-77
2023/07/12 09:01:41;;;;;;;16.42;12.95;;;19.60;99.90;;;;;;6104371;23;20328;-77
2023/07/12 09:04:19;;;;;;;16.00;11.15;;;20.00;99.90;;;;;;6128833;23;20095;-77
2023/07/12 09:06:45;;;;;;;13.25;10.98;;;20.60;99.90;;;;;;6128412;23;20036;-77
2023/07/12 09:09:11;;;;;;;14.68;9.45;;;21.10;99.90;;;;;;6128225;23;20009;-77
2023/07/12 09:11:37;;;;;;;13.85;9.20;;;21.90;99.90;;;;;;6128636;23;20016;-77
2023/07/12 09:14:02;;;;;;;14.10;8.77;;;22.40;99.90;;;;;;6129217;23;20009;-77
2023/07/12 09:16:34;;;;;;;12.23;7.93;;;22.80;99.90;;;;;;6128495;23;20014;-77
2023/07/12 09:19:13;;;;;;;10.07;7.10;;;23.10;99.90;;;;;;6128130;23;20014;-78
2023/07/12 09:21:39;;;;;;;11.35;7.68;;;23.00;99.90;;;;;;6128363;23;20013;-77
2023/07/12 09:24:13;;;;;;;13.63;7.30;;;22.60;99.90;;;;;;6128764;23;20014;-77
2023/07/12 09:26:39;;;;;;;12.15;6.80;;;22.20;99.90;;;;;;6128255;23;20029;-77
2023/07/12 09:29:08;;;;;;;12.68;7.13;;;21.70;99.90;;;;;;6104179;23;20310;-78
2023/07/12 09:31:35;;;;;;;11.43;6.95;;;21.40;99.90;;;;;;6128511;23;20339;-77
2023/07/12 09:34:05;;;;;;;12.68;7.57;;;21.00;99.90;;;;;;6128041;23;20010;-77
2023/07/12 09:36:36;;;;;;;13.13;7.47;;;20.90;99.90;;;;;;6128112;23;20010;-78
2023/07/12 09:39:04;;;;;;;11.68;7.00;;;21.10;99.90;;;;;;6128526;23;20010;-78
2023/07/12 09:41:30;;;;;;;14.93;7.57;;;21.50;99.90;;;;;;6128503;23;20324;-78
2023/07/12 09:43:58;;;;;;;10.00;7.82;;;21.60;99.90;;;;;;6128435;23;20109;-77
2023/07/12 09:46:29;;;;;;;12.00;7.75;;;21.60;99.90;;;;;;6128012;23;20021;-78
2023/07/12 09:49:08;;;;;;;12.75;6.28;;;21.40;99.90;;;;;;6127906;23;20056;-78
2023/07/12 09:51:59;;;;;;;8.48;5.50;;;21.20;99.90;;;;;;6103894;23;20020;-78
2023/07/12 09:54:35;;;;;;;10.55;5.75;;;21.10;99.90;;;;;;6128819;23;20088;-78
2023/07/12 09:57:03;;;;;;;10.30;5.93;;;21.00;99.90;;;;;;6128289;23;20346;-77
2023/07/12 09:59:37;;;;;;;9.80;5.47;;;21.10;99.90;;;;;;6103882;23;20077;-78
2023/07/12 10:02:14;;;;;;;7.85;4.28;;;21.30;99.90;;;;;;6128490;23;20347;-78
2023/07/12 10:04:45;;;;;;;10.48;4.60;;;21.30;99.90;;;;;;6128356;23;20080;-78
2023/07/12 10:07:42;;;;;;;8.45;4.30;;;21.20;99.90;;;;;;6128306;23;20064;-78
2023/07/12 10:10:39;;;;;;;8.65;4.60;;;21.50;99.90;;;;;;6104002;23;20041;-78
2023/07/12 10:13:28;;;;;;;8.20;3.80;;;22.10;99.90;;;;;;6128192;23;20025;-78
2023/07/12 10:15:54;;;;;;;9.43;4.43;;;22.70;99.90;;;;;;6128003;23;20053;-79
2023/07/12 10:18:24;;;;;;;7.30;3.95;;;23.40;99.90;;;;;;6127435;23;20052;-78
2023/07/12 10:20:51;;;;;;;6.72;3.63;;;24.20;99.90;;;;;;6104335;23;20040;-78
2023/07/12 10:23:21;;;;;;;6.22;2.90;;;24.90;99.90;;;;;;6130313;23;20013;-78
2023/07/12 10:25:56;;;;;;;6.30;3.00;;;25.30;99.90;;;;;;6128175;23;20013;-78
2023/07/12 10:28:34;;;;;;;5.85;2.65;;;25.40;99.90;;;;;;6126705;23;20021;-78
2023/07/12 10:31:06;;;;;;;4.95;2.17;;;25.40;99.90;;;;;;6127309;23;20010;-78
2023/07/12 10:33:41;;;;;;;5.68;1.98;;;25.60;99.90;;;;;;6127707;23;20020;-78
2023/07/12 10:36:14;;;;;;;3.50;1.88;;;25.50;99.90;;;;;;6127836;23;20028;-78
2023/07/12 10:38:40;;;;;;;7.22;1.80;;;25.30;99.90;;;;;;6127787;23;20506;-78
2023/07/12 10:41:12;;;;;;;4.57;1.70;;;25.00;99.90;;;;;;6127039;23;20095;-79
2023/07/12 10:43:48;;;;;;;4.70;2.00;;;24.70;99.90;;;;;;6127785;23;20017;-79
2023/07/12 10:46:34;;;;;;;4.75;2.00;;;24.30;99.90;;;;;;6127808;23;20010;-79
2023/07/12 10:49:04;;;;;;;7.63;3.00;;;24.10;99.90;;;;;;6127801;23;20029;-78
2023/07/12 10:51:37;;;;;;;4.38;2.13;;;23.90;99.90;;;;;;6126587;23;20066;-77
2023/07/12 10:54:05;;;;;;;4.82;2.28;;;24.00;99.90;;;;;;6126658;23;20009;-78
2023/07/12 10:56:51;;;;;;;4.90;2.38;;;24.60;99.90;;;;;;6101855;23;20016;-78
2023/07/12 10:59:30;;;;;;;4.80;2.08;;;25.50;99.90;;;;;;6126313;23;20524;-78
2023/07/12 11:02:03;;;;;;;7.20;2.60;;;26.40;99.90;;;;;;6128798;23;20025;-80
2023/07/12 11:04:34;;;;;;;4.57;2.22;;;26.70;99.90;;;;;;6129688;23;20323;-78
2023/07/12 11:07:03;;;;;;;5.35;2.17;;;27.10;99.90;;;;;;6131625;23;20262;-79
2023/07/12 11:09:47;;;;;;;4.43;1.90;;;27.50;99.90;;;;;;6131479;23;20014;-77
2023/07/12 11:12:26;;;;;;;4.45;1.80;;;27.90;99.90;;;;;;6129760;23;20020;-78
2023/07/12 11:15:04;;;;;;;5.28;1.80;;;28.30;99.90;;;;;;6129916;23;20013;-77
2023/07/12 11:17:59;;;;;;;6.20;1.50;;;28.50;99.90;;;;;;6129132;23;20013;-78
2023/07/12 11:20:34;;;;;;;4.25;1.60;;;28.60;99.90;;;;;;6129333;23;20013;-78
2023/07/12 11:23:06;;;;;;;3.65;1.77;;;28.40;99.90;;;;;;6128009;23;20450;-78
2023/07/12 11:25:37;;;;;;;4.70;1.60;;;28.00;99.90;;;;;;6128875;23;20018;-78
2023/07/12 11:28:24;;;;;;;3.28;1.40;;;27.90;99.90;;;;;;6128750;23;20009;-78
2023/07/12 11:31:13;;;;;;;3.63;1.25;;;27.90;99.90;;;;;;6128355;23;20509;-77
2023/07/12 11:33:45;;;;;;;3.15;1.38;;;28.20;99.90;;;;;;6128186;23;20014;-78
2023/07/12 11:36:21;;;;;;;3.75;1.60;;;28.30;99.90;;;;;;6129084;23;20353;-78
2023/07/12 11:38:49;;;;;;;2.40;1.33;;;28.40;99.90;;;;;;6129427;23;20013;-78
2023/07/12 11:41:22;;;;;;;4.10;1.60;;;28.60;99.90;;;;;;6129734;23;20013;-78
2023/07/12 11:44:01;;;;;;;2.17;1.10;;;28.90;99.90;;;;;;6128148;23;20327;-78
2023/07/12 11:46:34;;;;;;;3.65;1.35;;;29.20;99.90;;;;;;6129390;23;20096;-78
2023/07/12 11:49:11;;;;;;;3.03;1.00;;;29.50;99.90;;;;;;6127960;23;20012;-79
2023/07/12 11:51:40;;;;;;;4.93;1.60;;;29.70;97.00;;;;;;6128463;23;20435;-79
2023/07/12 11:54:19;;;;;;;3.17;1.58;;;29.70;97.80;;;;;;6128699;23;20462;-80
2023/07/12 11:56:46;;;;;;;2.88;1.50;;;29.40;73.00;;;;;;6128858;23;20021;-79
2023/07/12 11:59:18;;;;;;;3.83;1.40;;;28.80;70.80;;;;;;6103854;23;20014;-80
2023/07/12 12:01:45;;;;;;;3.13;1.60;;;28.50;94.30;;;;;;6129898;23;20017;-78
2023/07/12 12:04:23;;;;;;;3.88;1.40;;;28.60;96.70;;;;;;6129887;23;20041;-79
2023/07/12 12:06:55;;;;;;;3.67;1.15;;;28.60;76.40;;;;;;6128883;23;20013;-79
2023/07/12 12:09:30;;;;;;;2.77;1.30;;;28.80;96.40;;;;;;6129252;23;20463;-79
2023/07/12 12:11:58;;;;;;;2.72;1.10;;;29.00;93.20;;;;;;6129071;23;20056;-79
2023/07/12 12:14:38;;;;;;;3.05;1.10;;;29.10;76.60;;;;;;6129660;23;20014;-79
2023/07/12 12:17:07;;;;;;;2.70;1.20;;;29.10;75.70;;;;;;6128865;23;20477;-79
2023/07/12 12:19:32;;;;;;;3.17;1.20;;;29.30;82.30;;;;;;6128550;23;20064;-80
2023/07/12 12:22:11;;;;;;;2.70;1.20;;;29.50;85.20;;;;;;6105730;23;20009;-80
2023/07/12 12:24:44;;;;;;;3.75;1.20;;;29.60;77.20;;;;;;6130065;23;20009;-80
2023/07/12 12:27:18;;;;;;;;;;;29.70;76.70;;;;;;6129770;23;20053;-80
2023/07/12 12:29:44;;;;;;;2.55;1.15;;;29.60;64.30;;;;;;6129866;23;19961;-79
2023/07/12 12:32:16;;;;;;;2.92;0.93;;;29.50;71.70;;;;;;6105513;23;20010;-79
2023/07/12 12:34:47;;;;;;;4.28;1.10;;;29.70;68.70;;;;;;6128723;23;20010;-79
2023/07/12 12:37:19;;;;;;;2.38;1.17;;;29.80;67.60;;;;;;6104956;23;20061;-80
2023/07/12 12:40:20;;;;;;;3.37;0.97;;;29.60;63.00;;;;;;6130088;23;20017;-80